Time,TemperatureF,DewpointF,PressureIn,WindDirection,WindDirectionDegrees,WindSpeedMPH,WindSpeedGustMPH,Humidity,HourlyPrecipIn,Conditions,Clouds,dailyrainin,SoftwareType,DateUTC
2013-12-01 00:10:00,32.4,25.0,30.37,NNE,19,0.0,3.0,73,0.00,,,0.00,weatherlink.com 1.10,2013-12-01 08:10:00,
2013-12-01 00:25:00,30.7,24.0,30.38,NNE,19,0.0,2.0,75,0.00,,,0.00,weatherlink.com 1.10,2013-12-01 08:25:00,
2013-12-01 00:40:00,29.7,23.0,30.38,NNE,19,0.0,0.0,76,0.00,,,0.00,weatherlink.com 1.10,2013-12-01 08:40:00,
2013-12-01 00:55:00,29.1,23.0,30.38,NNE,19,0.0,2.0,78,0.00,,,0.00,weatherlink.com 1.10,2013-12-01 08:55:00,
2013-12-01 01:10:00,29.8,24.0,30.39,NNE,20,1.0,3.0,79,0.00,,,0.00,weatherlink.com 1.10,2013-12-01 09:10:00,
2013-12-01 01:25:00,30.6,25.0,30.39,NNE,20,2.0,2.0,78,0.00,,,0.00,weatherlink.com 1.10,2013-12-01 09:25:00,
2013-12-01 01:40:00,30.7,25.0,30.39,NNE,20,0.0,3.0,79,0.00,,,0.00,weatherlink.com 1.10,2013-12-01 09:40:00,
2013-12-01 01:55:00,30.3,25.0,30.39,NNE,20,0.0,2.0,80,0.00,,,0.00,weatherlink.com 1.10,2013-12-01 09:55:00,
2013-12-01 02:10:00,30.3,25.0,30.40,NNE,20,0.0,2.0,81,0.00,,,0.00,weatherlink.com 1.10,2013-12-01 10:10:00,
2013-12-01 02:25:00,30.4,25.0,30.39,NNE,19,1.0,4.0,81,0.00,,,0.00,weatherlink.com 1.10,2013-12-01 10:25:00,
2013-12-01 02:40:00,31.2,25.0,30.39,NNE,19,2.0,3.0,79,0.00,,,0.00,weatherlink.com 1.10,2013-12-01 10:40:00,
2013-12-01 02:55:00,33.4,26.0,30.39,NNE,19,0.0,2.0,73,0.00,,,0.00,weatherlink.com 1.10,2013-12-01 10:55:00,
2013-12-01 03:10:00,29.5,23.0,30.39,NNE,21,0.0,3.0,76,0.00,,,0.00,weatherlink.com 1.10,2013-12-01 11:10:00,
2013-12-01 03:25:00,27.5,22.0,30.39,NNE,22,0.0,3.0,79,0.00,,,0.00,weatherlink.com 1.10,2013-12-01 11:25:00,
2013-12-01 03:40:00,27.0,22.0,30.39,NNE,22,0.0,1.0,81,0.00,,,0.00,weatherlink.com 1.10,2013-12-01 11:40:00,
2013-12-01 03:55:00,27.3,23.0,30.39,NNE,21,2.0,3.0,82,0.00,,,0.00,weatherlink.com 1.10,2013-12-01 11:55:00,
2013-12-01 04:10:00,27.6,23.0,30.39,NNE,21,0.0,3.0,82,0.00,,,0.00,weatherlink.com 1.10,2013-12-01 12:10:00,
2013-12-01 04:25:00,27.9,23.0,30.39,NNE,21,0.0,3.0,82,0.00,,,0.00,weatherlink.com 1.10,2013-12-01 12:25:00,
2013-12-01 04:40:00,28.4,23.0,30.39,NNE,21,0.0,3.0,81,0.00,,,0.00,weatherlink.com 1.10,2013-12-01 12:40:00,
2013-12-01 04:55:00,28.8,24.0,30.39,NNE,21,1.0,3.0,81,0.00,,,0.00,weatherlink.com 1.10,2013-12-01 12:55:00,
2013-12-01 05:10:00,29.4,24.0,30.40,NNE,20,2.0,5.0,81,0.00,,,0.00,weatherlink.com 1.10,2013-12-01 13:10:00,
2013-12-01 05:25:00,30.0,24.0,30.41,NNE,20,0.0,2.0,79,0.00,,,0.00,weatherlink.com 1.10,2013-12-01 13:25:00,
2013-12-01 05:40:00,28.4,23.0,30.41,NNE,20,0.0,2.0,79,0.00,,,0.00,weatherlink.com 1.10,2013-12-01 13:40:00,
2013-12-01 05:55:00,27.8,23.0,30.41,NNE,20,0.0,2.0,82,0.00,,,0.00,weatherlink.com 1.10,2013-12-01 13:55:00,
2013-12-01 06:10:00,27.8,23.0,30.42,NNE,20,1.0,2.0,82,0.00,,,0.00,weatherlink.com 1.10,2013-12-01 14:10:00,
2013-12-01 06:25:00,28.1,23.0,30.42,NNE,20,0.0,3.0,82,0.00,,,0.00,weatherlink.com 1.10,2013-12-01 14:25:00,
2013-12-01 06:40:00,28.5,23.0,30.43,NNE,20,1.0,3.0,81,0.00,,,0.00,weatherlink.com 1.10,2013-12-01 14:40:00,
2013-12-01 06:55:00,27.5,22.0,30.43,NNE,20,1.0,2.0,81,0.00,,,0.00,weatherlink.com 1.10,2013-12-01 14:55:00,
2013-12-01 07:10:00,28.8,24.0,30.43,NNE,20,0.0,5.0,82,0.00,,,0.00,weatherlink.com 1.10,2013-12-01 15:10:00,
2013-12-01 07:25:00,33.1,26.0,30.43,West,279,3.0,6.0,76,0.00,,,0.00,weatherlink.com 1.10,2013-12-01 15:25:00,
2013-12-01 07:40:00,36.0,27.0,30.43,NW,311,8.0,8.0,69,0.00,,,0.00,weatherlink.com 1.10,2013-12-01 15:40:00,
2013-12-01 07:56:00,36.3,26.0,30.44,NW,309,5.0,8.0,67,0.00,,,0.00,weatherlink.com 1.10,2013-12-01 15:56:00,
2013-12-01 08:11:00,38.0,27.0,30.44,West,271,5.0,11.0,64,0.00,,,0.00,weatherlink.com 1.10,2013-12-01 16:11:00,
2013-12-01 08:26:00,39.6,27.0,30.43,WNW,289,10.0,14.0,61,0.00,,,0.00,weatherlink.com 1.10,2013-12-01 16:26:00,
2013-12-01 08:41:00,40.5,27.0,30.43,West,263,6.0,15.0,58,0.00,,,0.00,weatherlink.com 1.10,2013-12-01 16:41:00,
2013-12-01 08:56:00,42.5,29.0,30.43,SE,132,4.0,5.0,59,0.00,,,0.00,weatherlink.com 1.10,2013-12-01 16:56:00,
2013-12-01 09:11:00,43.3,29.0,30.44,ENE,74,0.0,5.0,58,0.00,,,0.00,weatherlink.com 1.10,2013-12-01 17:11:00,
2013-12-01 09:26:00,44.1,28.0,30.43,West,263,6.0,8.0,53,0.00,,,0.00,weatherlink.com 1.10,2013-12-01 17:26:00,
2013-12-01 09:41:00,45.5,28.0,30.43,SSE,161,2.0,10.0,51,0.00,,,0.00,weatherlink.com 1.10,2013-12-01 17:41:00,
2013-12-01 09:56:00,47.4,29.0,30.43,SSE,160,5.0,5.0,49,0.00,,,0.00,weatherlink.com 1.10,2013-12-01 17:56:00,
2013-12-01 10:11:00,47.9,29.0,30.43,SSW,199,1.0,7.0,48,0.00,,,0.00,weatherlink.com 1.10,2013-12-01 18:11:00,
2013-12-01 10:26:00,48.6,28.0,30.43,South,186,2.0,5.0,45,0.00,,,0.00,weatherlink.com 1.10,2013-12-01 18:26:00,
2013-12-01 10:41:00,51.4,28.0,30.42,South,185,1.0,4.0,41,0.00,,,0.00,weatherlink.com 1.10,2013-12-01 18:41:00,
2013-12-01 10:56:00,51.4,29.0,30.41,SSE,149,2.0,7.0,42,0.00,,,0.00,weatherlink.com 1.10,2013-12-01 18:56:00,
2013-12-01 11:11:00,53.8,29.0,30.41,SSE,155,1.0,5.0,38,0.00,,,0.00,weatherlink.com 1.10,2013-12-01 19:11:00,
2013-12-01 11:26:00,55.3,29.0,30.40,SSE,154,0.0,4.0,36,0.00,,,0.00,weatherlink.com 1.10,2013-12-01 19:26:00,
2013-12-01 11:41:00,56.3,28.0,30.40,SSE,153,2.0,5.0,34,0.00,,,0.00,weatherlink.com 1.10,2013-12-01 19:41:00,
2013-12-01 11:56:00,57.6,29.0,30.39,SSE,152,0.0,4.0,33,0.00,,,0.00,weatherlink.com 1.10,2013-12-01 19:56:00,
2013-12-01 12:11:00,58.1,29.0,30.38,SE,140,1.0,5.0,33,0.00,,,0.00,weatherlink.com 1.10,2013-12-01 20:11:00,
2013-12-01 12:26:00,56.0,28.0,30.37,ENE,65,0.0,10.0,34,0.00,,,0.00,weatherlink.com 1.10,2013-12-01 20:26:00,
2013-12-01 12:41:00,58.4,27.0,30.36,ENE,65,0.0,3.0,30,0.00,,,0.00,weatherlink.com 1.10,2013-12-01 20:41:00,
2013-12-01 12:56:00,56.9,27.0,30.37,NNE,27,1.0,7.0,32,0.00,,,0.00,weatherlink.com 1.10,2013-12-01 20:56:00,
2013-12-01 13:11:00,59.0,27.0,30.36,ENE,67,0.0,4.0,29,0.00,,,0.00,weatherlink.com 1.10,2013-12-01 21:11:00,
2013-12-01 13:26:00,59.6,27.0,30.36,ENE,66,2.0,3.0,29,0.00,,,0.00,weatherlink.com 1.10,2013-12-01 21:26:00,
2013-12-01 13:41:00,59.6,27.0,30.35,ENE,66,2.0,3.0,29,0.00,,,0.00,weatherlink.com 1.10,2013-12-01 21:41:00,
2013-12-01 13:56:00,59.9,27.0,30.34,ENE,66,0.0,1.0,29,0.00,,,0.00,weatherlink.com 1.10,2013-12-01 21:56:00,
2013-12-01 14:11:00,61.0,27.0,30.34,ENE,66,0.0,0.0,28,0.00,,,0.00,weatherlink.com 1.10,2013-12-01 22:11:00,
2013-12-01 14:26:00,58.6,27.0,30.33,ENE,66,0.0,1.0,30,0.00,,,0.00,weatherlink.com 1.10,2013-12-01 22:26:00,
2013-12-01 14:41:00,58.0,27.0,30.34,ENE,66,0.0,1.0,31,0.00,,,0.00,weatherlink.com 1.10,2013-12-01 22:41:00,
2013-12-01 14:56:00,58.6,27.0,30.34,ENE,66,0.0,1.0,30,0.00,,,0.00,weatherlink.com 1.10,2013-12-01 22:56:00,
2013-12-01 15:12:00,58.0,27.0,30.33,ENE,66,0.0,0.0,30,0.00,,,0.00,weatherlink.com 1.10,2013-12-01 23:12:00,
2013-12-01 15:27:00,57.0,29.0,30.33,ENE,66,0.0,0.0,34,0.00,,,0.00,weatherlink.com 1.10,2013-12-01 23:27:00,
2013-12-01 15:42:00,55.6,29.0,30.33,ENE,66,0.0,0.0,37,0.00,,,0.00,weatherlink.com 1.10,2013-12-01 23:42:00,
2013-12-01 15:57:00,54.2,29.0,30.33,ENE,66,0.0,1.0,38,0.00,,,0.00,weatherlink.com 1.10,2013-12-01 23:57:00,
2013-12-01 16:12:00,52.6,29.0,30.32,ENE,66,0.0,1.0,40,0.00,,,0.00,weatherlink.com 1.10,2013-12-02 00:12:00,
2013-12-01 16:27:00,50.4,29.0,30.32,SW,215,2.0,5.0,44,0.00,,,0.00,weatherlink.com 1.10,2013-12-02 00:27:00,
2013-12-01 16:42:00,49.2,29.0,30.32,SW,223,8.0,10.0,46,0.00,,,0.00,weatherlink.com 1.10,2013-12-02 00:42:00,
2013-12-01 16:57:00,48.5,29.0,30.32,SW,218,4.0,6.0,47,0.00,,,0.00,weatherlink.com 1.10,2013-12-02 00:57:00,
2013-12-01 17:12:00,47.9,29.0,30.32,SSW,200,0.0,3.0,48,0.00,,,0.00,weatherlink.com 1.10,2013-12-02 01:12:00,
2013-12-01 17:27:00,47.6,29.0,30.32,SSW,207,3.0,5.0,48,0.00,,,0.00,weatherlink.com 1.10,2013-12-02 01:27:00,
2013-12-01 17:42:00,47.4,28.0,30.31,SSW,211,2.0,7.0,48,0.00,,,0.00,weatherlink.com 1.10,2013-12-02 01:42:00,
2013-12-01 17:57:00,48.3,28.0,30.30,SSW,192,4.0,8.0,46,0.00,,,0.00,weatherlink.com 1.10,2013-12-02 01:57:00,
2013-12-01 18:12:00,47.1,28.0,30.30,SSW,205,4.0,8.0,48,0.00,,,0.00,weatherlink.com 1.10,2013-12-02 02:12:00,
2013-12-01 18:27:00,47.4,28.0,30.30,SSW,203,5.0,7.0,48,0.00,,,0.00,weatherlink.com 1.10,2013-12-02 02:27:00,
2013-12-01 18:42:00,45.4,28.0,30.29,SSW,207,0.0,5.0,51,0.00,,,0.00,weatherlink.com 1.10,2013-12-02 02:42:00,
2013-12-01 18:57:00,44.1,28.0,30.29,SSW,207,0.0,1.0,54,0.00,,,0.00,weatherlink.com 1.10,2013-12-02 02:57:00,
2013-12-01 19:12:00,41.6,28.0,30.29,SSW,206,0.0,1.0,58,0.00,,,0.00,weatherlink.com 1.10,2013-12-02 03:12:00,
2013-12-01 19:27:00,41.5,28.0,30.29,SSW,210,0.0,2.0,60,0.00,,,0.00,weatherlink.com 1.10,2013-12-02 03:27:00,
2013-12-01 19:42:00,44.1,29.0,30.29,SSE,156,0.0,2.0,56,0.00,,,0.00,weatherlink.com 1.10,2013-12-02 03:42:00,
2013-12-01 19:57:00,46.4,29.0,30.28,SSE,151,3.0,5.0,51,0.00,,,0.00,weatherlink.com 1.10,2013-12-02 03:57:00,
2013-12-01 20:12:00,45.1,29.0,30.28,South,184,0.0,3.0,53,0.00,,,0.00,weatherlink.com 1.10,2013-12-02 04:12:00,
2013-12-01 20:27:00,44.9,29.0,30.29,South,184,0.0,4.0,54,0.00,,,0.00,weatherlink.com 1.10,2013-12-02 04:27:00,
2013-12-01 20:42:00,50.2,31.0,30.27,WSW,242,5.0,10.0,48,0.00,,,0.00,weatherlink.com 1.10,2013-12-02 04:42:00,
2013-12-01 20:57:00,47.0,29.0,30.28,SW,229,0.0,2.0,49,0.00,,,0.00,weatherlink.com 1.10,2013-12-02 04:57:00,
2013-12-01 21:12:00,48.0,30.0,30.27,SW,215,0.0,6.0,50,0.00,,,0.00,weatherlink.com 1.10,2013-12-02 05:12:00,
2013-12-01 21:27:00,48.9,29.0,30.28,SW,234,6.0,11.0,47,0.00,,,0.00,weatherlink.com 1.10,2013-12-02 05:27:00,
2013-12-01 21:42:00,49.6,30.0,30.27,West,267,2.0,12.0,48,0.00,,,0.00,weatherlink.com 1.10,2013-12-02 05:42:00,
2013-12-01 21:57:00,47.0,28.0,30.27,West,265,0.0,3.0,48,0.00,,,0.00,weatherlink.com 1.10,2013-12-02 05:57:00,
2013-12-01 22:12:00,44.1,29.0,30.27,West,265,0.0,1.0,55,0.00,,,0.00,weatherlink.com 1.10,2013-12-02 06:12:00,
2013-12-01 22:27:00,45.2,28.0,30.27,NW,323,0.0,5.0,51,0.00,,,0.00,weatherlink.com 1.10,2013-12-02 06:27:00,
2013-12-01 22:42:00,42.1,28.0,30.27,NW,323,0.0,1.0,57,0.00,,,0.00,weatherlink.com 1.10,2013-12-02 06:42:00,
2013-12-01 22:57:00,40.5,27.0,30.27,NW,321,3.0,3.0,59,0.00,,,0.00,weatherlink.com 1.10,2013-12-02 06:57:00,
2013-12-01 23:12:00,39.9,27.0,30.27,NNE,26,0.0,4.0,60,0.00,,,0.00,weatherlink.com 1.10,2013-12-02 07:12:00,
2013-12-01 23:27:00,39.5,27.0,30.27,NNE,12,0.0,3.0,61,0.00,,,0.00,weatherlink.com 1.10,2013-12-02 07:27:00,
2013-12-01 23:42:00,41.8,27.0,30.26,North,11,1.0,3.0,57,0.00,,,0.00,weatherlink.com 1.10,2013-12-02 07:42:00,
2013-12-01 23:57:00,40.3,27.0,30.25,NE,46,0.0,4.0,59,0.00,,,0.00,weatherlink.com 1.10,2013-12-02 07:57:00,